Terminal Aerodrome Forecast
Issued by NWS Milwaukee/Sullivan, WI

Home | Current Version | Previous Version | Text Only | Print | Product List | Glossary On
Versions: 1 2 3 4 5 6 7 8 9 10 11 12 13 14 15 16 17 18 19 20 21 22 23 24 25 26 27 28 29
000
FTUS43 KMKX 230520
TAFMSN
TAF
KMSN 230520Z 2306/2406 15005KT P6SM BKN250
     FM231500 20007KT P6SM SCT250
     FM232000 20009KT P6SM SCT070 BKN150
     FM240200 16005KT P6SM BKN110=

USA.gov is the U.S. government's official web portal to all federal, state and local government web resources and services.